KLUL

Details ICAO KLUL
Name HESLER NOBLE FLD
Region United States
Timezone America/Chicago (UTC-5.0)
Plans Departing 2
Arriving 1
Stats Elevation 238 ft / 73 m (AMSL)
Location 31.673046° -89.172775°
Runways 1
Magnetic Variation 1.650° W
Sunrise 2018-05-24 10:56:27 UTC / 2018-05-24 05:56:27 Local
Sunset 2018-05-25 00:53:31 UTC / 2018-05-24 19:53:31 Local
Advertisement - Login to hide

Runways

ID Width Length Bearing (true) Bearing (mag) Surface Threshold Offset Overrun Length
13 150 ft / 46 m 5,516 ft / 1,681 m 135.14° 136.79° Asphalt 0 ft / 0 m 0 ft / 0 m
31 150 ft / 46 m 5,516 ft / 1,681 m 315.14° 316.79° Asphalt 0 ft / 0 m 0 ft / 0 m

Map

Weather


0- 5 10 15 20 25 30 35+ Temperature / ° C

Clouds and Precipitation
Forecast for 2018-05-24 06:00 UTC. Updated 4 hours ago

Ground ~20,000 ft ~40,000 ft Winds

METAR

KLUL 240855Z AUTO 00000KT 10SM CLR 20/20 A3005 RMK AO2 T02000200

TAF

Not found

Frequencies

Recorded 119.27 MHz AWOS 3
Unicom 123.05 MHz CTAF/UNICOM
Warning: Do not use this data for real-world aviation or navigation. No guarantee of current accuracy is given.